createdAt,value
2023-01-09T00:00:49.907Z,4.7
2023-01-09T00:03:49.926Z,4.6
2023-01-09T00:06:49.910Z,5
2023-01-09T00:09:49.920Z,5.9
2023-01-09T00:12:49.953Z,4.3
2023-01-09T00:15:49.920Z,5.3
2023-01-09T00:18:49.932Z,4.9
2023-01-09T00:21:49.934Z,4.6
2023-01-09T00:24:49.930Z,4.8
2023-01-09T00:27:49.947Z,5.4
2023-01-09T00:30:50.041Z,4.3
2023-01-09T00:33:49.949Z,5.6
2023-01-09T00:36:49.943Z,4.6
2023-01-09T00:39:49.964Z,5.2
2023-01-09T00:42:49.966Z,4.9
2023-01-09T00:45:50.009Z,4.9
2023-01-09T00:48:49.993Z,5.1
2023-01-09T00:51:49.967Z,5.1
2023-01-09T00:54:49.961Z,5.3
2023-01-09T00:57:49.970Z,5.7
2023-01-09T01:00:50.043Z,5.1
2023-01-09T01:03:49.968Z,5
2023-01-09T01:06:49.994Z,6.2
2023-01-09T01:09:49.973Z,5.4
2023-01-09T01:12:49.997Z,4.7
2023-01-09T01:15:49.985Z,4.8
2023-01-09T01:18:49.988Z,4.4
2023-01-09T01:21:50.000Z,5.2
2023-01-09T01:24:50.034Z,4.5
2023-01-09T01:27:50.024Z,4.6
2023-01-09T01:30:50.063Z,4.3
2023-01-09T01:33:50.018Z,4.9
2023-01-09T01:36:50.024Z,4.4
2023-01-09T01:39:50.040Z,4.8
2023-01-09T01:42:50.070Z,4.1
2023-01-09T01:45:50.068Z,4
2023-01-09T01:48:50.049Z,4.4
2023-01-09T01:51:50.045Z,4.1
2023-01-09T01:54:50.055Z,3.9
2023-01-09T01:57:50.071Z,5
2023-01-09T02:00:50.149Z,3.7
2023-01-09T02:03:50.067Z,4.2
2023-01-09T02:06:50.080Z,4.9
2023-01-09T02:09:50.081Z,3.9
2023-01-09T02:12:50.102Z,4.6
2023-01-09T02:15:50.136Z,4.9
2023-01-09T02:18:50.114Z,4
2023-01-09T02:21:50.099Z,5.3
2023-01-09T02:24:50.098Z,4.6
2023-01-09T02:27:50.112Z,4.6
2023-01-09T02:30:50.136Z,4.4
2023-01-09T02:33:50.120Z,4.8
2023-01-09T02:36:50.148Z,5.4
2023-01-09T02:39:50.124Z,5
2023-01-09T02:42:50.136Z,5.2
2023-01-09T02:45:50.155Z,4.9
2023-01-09T02:48:50.136Z,5.8
2023-01-09T02:51:50.140Z,4.7
2023-01-09T02:54:50.181Z,5.6
2023-01-09T02:57:50.173Z,5
2023-01-09T03:00:50.306Z,6.2
2023-01-09T03:03:50.170Z,5.8
2023-01-09T03:06:50.171Z,5.3
2023-01-09T03:09:50.176Z,5.4
2023-01-09T03:12:50.212Z,5.4
2023-01-09T03:15:50.183Z,6.1
2023-01-09T03:18:50.185Z,5.7
2023-01-09T03:21:50.198Z,5.9
2023-01-09T03:24:50.199Z,6.1
2023-01-09T03:27:50.204Z,6.6
2023-01-09T03:30:50.216Z,5.9
2023-01-09T03:33:50.204Z,6.2
2023-01-09T03:36:50.205Z,6.1
2023-01-09T03:39:50.217Z,6.7
2023-01-09T03:42:50.234Z,6.4
2023-01-09T03:45:50.264Z,6.5
2023-01-09T03:48:50.250Z,6.8
2023-01-09T03:51:50.235Z,7.4
2023-01-09T03:54:50.236Z,6.3
2023-01-09T03:57:50.278Z,6.2
2023-01-09T04:00:50.297Z,7.3
2023-01-09T04:03:50.300Z,8.1
2023-01-09T04:06:50.279Z,6.7
2023-01-09T04:09:50.264Z,6.6
2023-01-09T04:12:50.275Z,6.6
2023-01-09T04:15:50.274Z,7.7
2023-01-09T04:18:50.276Z,6.9
2023-01-09T04:21:50.270Z,7.3
2023-01-09T04:24:50.316Z,7.4
2023-01-09T04:27:50.344Z,8.1
2023-01-09T04:30:50.376Z,7.1
2023-01-09T04:33:50.278Z,7.9
2023-01-09T04:36:50.286Z,8.8
2023-01-09T04:39:50.288Z,7.7
2023-01-09T04:42:50.335Z,8.5
2023-01-09T04:45:50.358Z,8.8
2023-01-09T04:48:50.298Z,8.8
2023-01-09T04:51:50.303Z,8.4
2023-01-09T04:54:50.308Z,9.6
2023-01-09T04:57:50.320Z,8.5
2023-01-09T05:00:50.431Z,8.9
2023-01-09T05:03:50.318Z,9.3
2023-01-09T05:06:50.316Z,10
2023-01-09T05:09:50.319Z,10.9
2023-01-09T05:12:50.326Z,10.3
2023-01-09T05:15:50.324Z,10.1
2023-01-09T05:18:50.346Z,10.3
2023-01-09T05:21:50.325Z,9
2023-01-09T05:24:50.323Z,9.8
2023-01-09T05:27:50.334Z,9.8
2023-01-09T05:30:50.323Z,9.5
2023-01-09T05:33:50.326Z,9.8
2023-01-09T05:36:50.455Z,9.1
2023-01-09T05:39:50.329Z,9.6
2023-01-09T05:42:50.348Z,9.2
2023-01-09T05:45:50.354Z,9.4
2023-01-09T05:48:50.333Z,9.5
2023-01-09T05:51:50.350Z,9.7
2023-01-09T05:54:50.363Z,10
2023-01-09T05:57:50.356Z,10.3
2023-01-09T06:00:50.428Z,10.5
2023-01-09T06:03:50.368Z,11.1
2023-01-09T06:06:50.366Z,11
2023-01-09T06:09:50.376Z,12.2
2023-01-09T06:12:50.423Z,11.6
2023-01-09T06:15:50.453Z,12.1
2023-01-09T06:18:50.404Z,11.7
2023-01-09T06:21:50.416Z,12.3
2023-01-09T06:24:50.422Z,10.5
2023-01-09T06:27:50.433Z,10.4
2023-01-09T06:30:50.486Z,9.3
2023-01-09T06:33:50.444Z,7.4
2023-01-09T06:36:50.448Z,7.6
2023-01-09T06:39:50.453Z,7.3
2023-01-09T06:42:50.539Z,7.4
2023-01-09T06:45:50.475Z,7.2
2023-01-09T06:48:50.518Z,7
2023-01-09T06:51:50.480Z,7.4
2023-01-09T06:54:50.488Z,6.3
2023-01-09T06:57:50.501Z,7.9
2023-01-09T07:00:50.550Z,5.7
2023-01-09T07:03:50.523Z,6
2023-01-09T07:06:50.534Z,5.3
2023-01-09T07:09:50.516Z,5.1
2023-01-09T07:12:50.519Z,5.5
2023-01-09T07:15:50.623Z,5.5
2023-01-09T07:18:50.527Z,6.1
2023-01-09T07:21:50.540Z,7.2
2023-01-09T07:24:50.593Z,6.3
2023-01-09T07:27:50.573Z,5.6
2023-01-09T07:30:50.555Z,5.5
2023-01-09T07:33:50.554Z,5.7
2023-01-09T07:36:50.559Z,5.6
2023-01-09T07:39:50.562Z,6.9
2023-01-09T07:42:50.597Z,7.4
2023-01-09T07:45:50.564Z,7
2023-01-09T07:48:50.572Z,6.7
2023-01-09T07:51:50.579Z,6.7
2023-01-09T07:54:50.583Z,6.4
2023-01-09T07:57:50.593Z,6.5
2023-01-09T08:00:50.628Z,7.1
2023-01-09T08:03:50.600Z,7.6
2023-01-09T08:06:50.609Z,6.8
2023-01-09T08:09:50.608Z,6.4
2023-01-09T08:12:50.625Z,7.5
2023-01-09T08:15:50.643Z,6.6
2023-01-09T08:18:50.648Z,7.4
2023-01-09T08:21:50.621Z,6.4
2023-01-09T08:24:50.636Z,8.2
2023-01-09T08:27:50.639Z,7.2
2023-01-09T08:30:50.647Z,7.9
2023-01-09T08:33:50.671Z,6.9
2023-01-09T08:36:50.690Z,7.3
2023-01-09T08:39:50.668Z,7.5
2023-01-09T08:42:50.679Z,8.1
2023-01-09T08:45:50.658Z,6.9
2023-01-09T08:48:50.673Z,8.8
2023-01-09T08:51:50.677Z,7.3
2023-01-09T08:54:50.705Z,10.6
2023-01-09T08:57:50.683Z,7.4
2023-01-09T09:00:50.680Z,7.5
2023-01-09T09:03:50.687Z,8.4
2023-01-09T09:06:50.687Z,8.7
2023-01-09T09:09:50.691Z,8.4
2023-01-09T09:12:50.826Z,8
2023-01-09T09:15:50.758Z,9.8
2023-01-09T09:18:50.706Z,8.8
2023-01-09T09:21:50.720Z,10.6
2023-01-09T09:24:50.715Z,10.1
2023-01-09T09:27:50.733Z,8.4
2023-01-09T09:30:50.796Z,9.9
2023-01-09T09:33:50.732Z,9.8
2023-01-09T09:36:50.813Z,10.3
2023-01-09T09:39:50.735Z,9.9
2023-01-09T09:42:50.748Z,9.9
2023-01-09T09:45:50.755Z,8.6
2023-01-09T09:48:50.776Z,10
2023-01-09T09:51:50.764Z,9.4
2023-01-09T09:54:50.764Z,7.2
2023-01-09T09:57:50.795Z,8.2
2023-01-09T10:00:50.777Z,8.5
2023-01-09T10:03:50.791Z,9.7
2023-01-09T10:06:50.814Z,7.3
2023-01-09T10:09:50.798Z,7.1
2023-01-09T10:12:50.805Z,7.5
2023-01-09T10:15:50.811Z,8.3
2023-01-09T10:18:50.800Z,7.7
2023-01-09T10:21:50.809Z,7.9
2023-01-09T10:24:50.837Z,7.9
2023-01-09T10:27:50.832Z,7.2
2023-01-09T10:30:50.824Z,6.7
2023-01-09T10:33:50.830Z,5.9
2023-01-09T10:36:50.857Z,7.5
2023-01-09T10:39:50.836Z,4.9
2023-01-09T10:42:50.923Z,6
2023-01-09T10:45:50.843Z,6.5
2023-01-09T10:48:50.842Z,7.9
2023-01-09T10:51:50.847Z,5.2
2023-01-09T10:54:50.853Z,6
2023-01-09T10:57:50.875Z,5.1
2023-01-09T11:00:50.927Z,4.1
2023-01-09T11:03:50.864Z,6.5
2023-01-09T11:06:50.864Z,6.3
2023-01-09T11:09:50.868Z,5.5
2023-01-09T11:12:50.885Z,5.2
2023-01-09T11:15:50.935Z,4.6
2023-01-09T11:18:50.904Z,4.4
2023-01-09T11:21:50.908Z,4.8
2023-01-09T11:24:50.896Z,6.1
2023-01-09T11:27:50.930Z,4.8
2023-01-09T11:30:50.917Z,5.6
2023-01-09T11:33:50.912Z,5.2
2023-01-09T11:36:50.970Z,4.1
2023-01-09T11:39:50.920Z,4.3
2023-01-09T11:42:50.934Z,3.9
2023-01-09T11:46:00.442Z,5.2
2023-01-09T11:48:50.926Z,5
2023-01-09T11:51:50.934Z,3.8
2023-01-09T11:54:50.998Z,4.5
2023-01-09T11:57:50.946Z,5
2023-01-09T12:00:50.939Z,3.8
2023-01-09T12:03:50.943Z,6.1
2023-01-09T12:06:50.955Z,4.1
2023-01-09T12:09:50.960Z,4.1
2023-01-09T12:12:50.999Z,3.4
2023-01-09T12:15:50.967Z,3.5
2023-01-09T12:18:50.967Z,2.9
2023-01-09T12:21:50.982Z,3.9
2023-01-09T12:24:50.979Z,2.9
2023-01-09T12:27:50.997Z,3.4
2023-01-09T12:30:51.021Z,3.6
2023-01-09T12:33:50.992Z,2.9
2023-01-09T12:36:51.039Z,5.1
2023-01-09T12:39:50.997Z,3.8
2023-01-09T12:42:51.021Z,3.7
2023-01-09T12:45:51.075Z,3.3
2023-01-09T12:48:51.058Z,3.9
2023-01-09T12:51:51.011Z,4.5
2023-01-09T12:54:51.023Z,3.4
2023-01-09T12:57:51.038Z,4.8
2023-01-09T13:00:51.072Z,4.8
2023-01-09T13:03:51.038Z,3.4
2023-01-09T13:06:51.212Z,3.3
2023-01-09T13:09:51.039Z,4.3
2023-01-09T13:12:51.050Z,3.3
2023-01-09T13:15:51.051Z,2.7
2023-01-09T13:18:51.055Z,3.2
2023-01-09T13:21:51.062Z,3
2023-01-09T13:24:51.093Z,3.4
2023-01-09T13:27:51.069Z,3.3
2023-01-09T13:30:51.067Z,3.2
2023-01-09T13:33:51.078Z,3.5
2023-01-09T13:36:51.163Z,3.5
2023-01-09T13:39:51.079Z,3.5
2023-01-09T13:42:51.141Z,3.3
2023-01-09T13:45:51.152Z,3.1
2023-01-09T13:48:51.107Z,2.9
2023-01-09T13:51:51.097Z,3.4
2023-01-09T13:54:51.099Z,3.6
2023-01-09T13:57:51.107Z,3.2
2023-01-09T14:00:51.245Z,3
2023-01-09T14:03:51.121Z,3.7
2023-01-09T14:06:51.115Z,2.6
2023-01-09T14:09:51.117Z,2.8
2023-01-09T14:12:51.132Z,2.7
2023-01-09T14:15:51.125Z,2.7
2023-01-09T14:18:51.162Z,2.6
2023-01-09T14:21:51.136Z,3.1
2023-01-09T14:24:51.154Z,2.8
2023-01-09T14:27:51.177Z,2
2023-01-09T14:30:51.158Z,3.7
2023-01-09T14:33:51.177Z,3.6
2023-01-09T14:36:51.213Z,3.7
2023-01-09T14:39:51.160Z,3.3
2023-01-09T14:42:51.182Z,3.2
2023-01-09T14:45:51.172Z,2.6
2023-01-09T14:48:51.192Z,3.9
2023-01-09T14:51:51.168Z,3.1
2023-01-09T14:54:51.192Z,2.3
2023-01-09T14:57:51.190Z,2.6
2023-01-09T15:00:51.242Z,2.8
2023-01-09T15:03:51.221Z,3.1
2023-01-09T15:06:51.208Z,2
2023-01-09T15:09:51.217Z,2.6
2023-01-09T15:12:51.269Z,2.3
2023-01-09T15:15:51.255Z,4
2023-01-09T15:18:51.246Z,3.6
2023-01-09T15:21:51.259Z,2.9
2023-01-09T15:24:51.252Z,3.4
2023-01-09T15:27:51.269Z,2.8
2023-01-09T15:30:51.283Z,2.9
2023-01-09T15:33:53.804Z,2.9
2023-01-09T15:36:51.311Z,3.1
2023-01-09T15:39:51.289Z,3.1
2023-01-09T15:42:51.299Z,3.8
2023-01-09T15:45:51.307Z,2.7
2023-01-09T15:48:51.445Z,3.1
2023-01-09T15:51:51.290Z,3
2023-01-09T15:54:51.298Z,2.9
2023-01-09T15:57:51.307Z,2.9
2023-01-09T16:00:51.326Z,3.3
2023-01-09T16:03:51.311Z,2.4
2023-01-09T16:06:51.328Z,2.2
2023-01-09T16:09:51.314Z,2.5
2023-01-09T16:12:51.339Z,2.3
2023-01-09T16:15:51.318Z,2.2
2023-01-09T16:18:51.352Z,2.5
2023-01-09T16:21:51.331Z,2.6
2023-01-09T16:24:51.362Z,2.3
2023-01-09T16:27:51.417Z,2.7
2023-01-09T16:30:51.335Z,1.9
2023-01-09T16:33:51.351Z,2.9
2023-01-09T16:36:51.365Z,2.6
2023-01-09T16:39:51.354Z,2.6
2023-01-09T16:42:51.405Z,2.5
2023-01-09T16:45:51.377Z,4
2023-01-09T16:48:51.382Z,4
2023-01-09T16:51:51.365Z,3.8
2023-01-09T16:54:51.367Z,3
2023-01-09T16:57:51.387Z,3.3
2023-01-09T17:00:51.455Z,3
2023-01-09T17:03:51.392Z,3.4
2023-01-09T17:06:51.378Z,3.7
2023-01-09T17:09:51.388Z,4.4
2023-01-09T17:12:51.400Z,4.4
2023-01-09T17:15:51.398Z,4.3
2023-01-09T17:18:51.429Z,3.4
2023-01-09T17:21:51.404Z,2.9
2023-01-09T17:24:51.409Z,4.5
2023-01-09T17:27:51.440Z,3.2
2023-01-09T17:30:51.423Z,3.1
2023-01-09T17:33:51.449Z,2.6
2023-01-09T17:36:51.498Z,2.8
2023-01-09T17:39:51.439Z,3.3
2023-01-09T17:42:51.463Z,3.4
2023-01-09T17:45:51.489Z,3.8
2023-01-09T17:48:51.471Z,3.7
2023-01-09T17:51:51.451Z,4.8
2023-01-09T17:54:51.488Z,3.8
2023-01-09T17:57:51.475Z,4.8
2023-01-09T18:00:51.475Z,3.7
2023-01-09T18:03:51.488Z,3.7
2023-01-09T18:06:51.478Z,3.1
2023-01-09T18:09:51.484Z,4.5
2023-01-09T18:12:51.524Z,4.2
2023-01-09T18:15:51.498Z,5.2
2023-01-09T18:18:51.519Z,5
2023-01-09T18:21:51.504Z,4.2
2023-01-09T18:24:51.510Z,4.3
2023-01-09T18:27:51.520Z,5
2023-01-09T18:30:51.561Z,4
2023-01-09T18:33:51.526Z,4.7
2023-01-09T18:36:51.560Z,4.9
2023-01-09T18:39:51.533Z,4.5
2023-01-09T18:42:51.543Z,5.5
2023-01-09T18:45:51.607Z,6.5
2023-01-09T18:48:51.583Z,5.8
2023-01-09T18:51:51.530Z,6.7
2023-01-09T18:54:51.537Z,6.7
2023-01-09T18:57:51.554Z,8.1
2023-01-09T19:00:51.592Z,7.4
2023-01-09T19:03:51.617Z,7.9
2023-01-09T19:06:51.579Z,8
2023-01-09T19:09:51.546Z,7.7
2023-01-09T19:12:51.565Z,7.6
2023-01-09T19:15:51.572Z,7.3
2023-01-09T19:18:51.605Z,8.1
2023-01-09T19:21:51.576Z,7.1
2023-01-09T19:24:51.594Z,6.4
2023-01-09T19:27:51.597Z,6
2023-01-09T19:30:51.572Z,6.3
2023-01-09T19:33:51.609Z,6.2
2023-01-09T19:36:51.687Z,6.3
2023-01-09T19:39:51.603Z,6.5
2023-01-09T19:42:51.629Z,5.6
2023-01-09T19:45:51.616Z,5.3
2023-01-09T19:48:51.624Z,4.5
2023-01-09T19:51:51.622Z,3.7
2023-01-09T19:54:51.622Z,4.1
2023-01-09T19:57:51.641Z,4.4
2023-01-09T20:00:51.688Z,3.8
2023-01-09T20:03:51.639Z,4.5
2023-01-09T20:06:51.635Z,3.1
2023-01-09T20:09:51.637Z,2.9
2023-01-09T20:12:51.642Z,3.6
2023-01-09T20:15:51.639Z,3.1
2023-01-09T20:18:51.688Z,3.8
2023-01-09T20:21:51.664Z,2.8
2023-01-09T20:24:51.660Z,3.5
2023-01-09T20:27:51.676Z,2.7
2023-01-09T20:30:51.692Z,2.8
2023-01-09T20:33:51.678Z,2.6
2023-01-09T20:36:51.799Z,2.9
2023-01-09T20:39:51.681Z,2.8
2023-01-09T20:42:51.696Z,2.7
2023-01-09T20:45:51.701Z,3.6
2023-01-09T20:48:51.720Z,3
2023-01-09T20:51:51.708Z,3.5
2023-01-09T20:54:51.733Z,3.5
2023-01-09T20:57:51.715Z,3.7
2023-01-09T21:00:51.775Z,4.4
2023-01-09T21:03:51.788Z,2.8
2023-01-09T21:06:51.740Z,3.9
2023-01-09T21:09:51.719Z,2.6
2023-01-09T21:12:51.755Z,3.5
2023-01-09T21:15:51.856Z,2.7
2023-01-09T21:18:51.739Z,2.9
2023-01-09T21:21:53.343Z,3
2023-01-09T21:24:51.752Z,2.6
2023-01-09T21:27:51.758Z,2.3
2023-01-09T21:30:51.775Z,2.9
2023-01-09T21:33:51.792Z,2.9
2023-01-09T21:36:51.824Z,2.6
2023-01-09T21:39:51.764Z,3.5
2023-01-09T21:42:51.808Z,2.9
2023-01-09T21:45:51.815Z,3.5
2023-01-09T21:48:51.811Z,3.6
2023-01-09T21:51:51.777Z,3.6
2023-01-09T21:54:51.786Z,3.5
2023-01-09T21:57:51.801Z,4
2023-01-09T22:00:51.871Z,3.3
2023-01-09T22:03:51.855Z,2.7
2023-01-09T22:06:51.820Z,2.9
2023-01-09T22:09:51.795Z,3.2
2023-01-09T22:12:51.811Z,3.6
2023-01-09T22:15:51.801Z,4.3
2023-01-09T22:18:51.815Z,3.9
2023-01-09T22:21:51.828Z,4.6
2023-01-09T22:24:51.833Z,5.3
2023-01-09T22:27:51.821Z,5.1
2023-01-09T22:30:51.817Z,6.2
2023-01-09T22:33:51.829Z,6.3
2023-01-09T22:36:51.847Z,6.7
2023-01-09T22:39:51.827Z,7
2023-01-09T22:42:51.869Z,9.5
2023-01-09T22:45:51.877Z,10.1
2023-01-09T22:48:51.833Z,10.5
2023-01-09T22:51:51.828Z,11.4
2023-01-09T22:54:51.840Z,13.1
2023-01-09T22:57:51.837Z,14.2
2023-01-09T23:00:51.869Z,14.8
2023-01-09T23:03:51.862Z,14.6
2023-01-09T23:06:51.832Z,15.4
2023-01-09T23:09:51.835Z,15.2
2023-01-09T23:12:51.850Z,16.3
2023-01-09T23:15:51.847Z,15.9
2023-01-09T23:18:51.864Z,16
2023-01-09T23:21:51.860Z,19.7
2023-01-09T23:24:51.848Z,18
2023-01-09T23:27:51.852Z,18.6
2023-01-09T23:30:51.842Z,19.6
2023-01-09T23:33:51.845Z,18.1
2023-01-09T23:36:51.925Z,18.3
2023-01-09T23:39:51.855Z,20
2023-01-09T23:42:51.878Z,20.3
2023-01-09T23:45:51.948Z,20.1
2023-01-09T23:48:51.861Z,20.3
2023-01-09T23:51:51.855Z,19.8
2023-01-09T23:54:51.876Z,19.7
2023-01-09T23:57:51.867Z,20.2
